METAR Data
IDs: Format: Raw Decoded Include TAF

Data at: 0425 UTC 26 Sep 2018

KRST 260354Z AUTO 28006KT 10SM CLR 08/07 A3004 RMK AO2 SLP176 T00780072
KRST 260254Z 26006KT 10SM FEW028 SCT036 08/07 A3003 RMK AO2 SLP173 T00780067 51010
KRST 260154Z 27005KT 10SM SCT036 08/07 A3002 RMK AO2 SLP170 T00830072
KRST 260054Z 27005KT 10SM SCT042 08/07 A3001 RMK AO2 SLP166 T00830067
KRST 252354Z 32007KT 10SM BKN032 10/07 A2999 RMK AO2 SLP160 60000 T01000072 10133 20100 53023
KRST 252332Z 32008G17KT 10SM SCT025 11/07 A2998 RMK AO2 T01060072
KRST 252254Z 32012G20KT 10SM FEW010 BKN018 BKN022 11/08 A2997 RMK AO2 SLP151 T01060078
KRST 252154Z 31011G20KT 10SM BKN010 OVC013 11/09 A2995 RMK AO2 CIG 008V012 SLP144 T01110089
KRST 252138Z 30013G22KT 10SM OVC014 11/09 A2995 RMK AO2 T01110089
KRST 252113Z 31013G19KT 10SM OVC016 12/09 A2994 RMK AO2 T01170094
KRST 252054Z 32008KT 10SM BKN013 OVC021 12/09 A2992 RMK AO2 SLP135 60000 T01170094 55002
KRST 252036Z 32011G19KT 10SM SCT015 OVC021 12/09 A2992 RMK AO2 T01170094
KRST 252001Z 32013G19KT 10SM OVC012 12/10 A2991 RMK AO2 T01220100
KRST 251954Z 32009KT 10SM SCT010 OVC015 12/11 A2991 RMK AO2 SLP129 T01220106
KRST 251930Z 32006KT 10SM SCT009 OVC015 13/11 A2991 RMK AO2 T01280106
KRST 251911Z 33007KT 10SM BKN009 OVC013 13/11 A2991 RMK AO2 CIG 007V012 T01280111
KRST 251854Z AUTO 34006KT 10SM BKN010 OVC014 12/11 A2991 RMK AO2 RAE10 CIG 006V011 SLP128 P0000 T01220111
KRST 251754Z 32008KT 7SM -RA OVC008 12/11 A2993 RMK AO2 CIG 006V012 SLP136 P0003 60003 T01170111 10144 20117 51002
KRST 251707Z 35011KT 9SM -RA OVC006 12/11 A2991 RMK AO2 CIG 004V009 PRESFR P0000 T01170106
KRST 251654Z 33009KT 6SM -RA BR OVC004 12/11 A2993 RMK AO2 RAB53 SLP134 P0000 T01170106
KRST 251627Z 34007KT 5SM BR OVC004 12/11 A2993 RMK AO2 T01220111
KRST 251554Z 32009KT 10SM OVC005 13/11 A2994 RMK AO2 CIG 004V009 SLP138 T01280111
KRST 251540Z 33008KT 8SM OVC004 12/11 A2994 RMK AO2 CIG 003V008 T01220111
KRST 251454Z 35006KT 10SM OVC006 13/12 A2992 RMK AO2 PRESRR SLP132 T01330117 53013
KRST 251354Z 34006KT 10SM BKN008 OVC014 14/13 A2989 RMK AO2 CIG 006V011 SLP121 T01390128
KRST 251350Z 35007KT 10SM BKN006 OVC011 14/13 A2990 RMK AO2 CIG 006V009
KRST 251342Z 34010KT 10SM SCT006 OVC011 14/13 A2990 RMK AO2 T01390128
KRST 251321Z 35009KT 10SM BKN008 OVC013 14/13 A2990 RMK AO2 CIG 006V012 T01440128
KRST 251315Z 34008KT 10SM BKN011 OVC015 14/13 A2990 RMK AO2 CIG 007V012 T01390128
KRST 251254Z 36007KT 10SM OVC008 14/13 A2988 RMK AO2 CIG 006V013 SLP118 T01390128
KRST 251219Z 35004KT 10SM BKN008 14/13 A2989 RMK AO2 T01390128
KRST 251154Z 33006KT 10SM OVC010 14/13 A2989 RMK AO2 CIG 008V014 SLP120 60000 T01390128 10161 20139 50001
KRST 251054Z 34006KT 10SM BKN010 BKN022 OVC030 14/13 A2990 RMK AO2 CIG 008V012 SLP122 T01390128
KRST 250954Z 34009KT 10SM BKN015 OVC021 14/13 A2990 RMK AO2 RAB0855E13 SLP121 P0000 T01390133
KRST 250932Z AUTO 34010KT 10SM SCT006 OVC012 14/13 A2990 RMK AO2 RAB0855E13 P0000 T01390133
KRST 250854Z AUTO 35014G19KT 9SM OVC005 15/14 A2989 RMK AO2 RAB04E17 CIG 004V008 SLP117 P0000 60000 T01500144 53007
KRST 250802Z AUTO 31005KT 10SM BKN008 OVC042 16/15 A2987 RMK AO2 T01560150
KRST 250754Z AUTO 31006KT 10SM SCT010 BKN040 OVC047 16/14 A2987 RMK AO2 RAB01E19B35E50 SLP110 P0000 T01560144
KRST 250751Z AUTO 30005KT 10SM FEW008 OVC040 16/15 A2987 RMK AO2 RAB01E19B35E50 P0000
KRST 250654Z AUTO 29003KT 10SM SCT040 BKN049 OVC060 16/14 A2987 RMK AO2 RAE50 SLP108 P0000 T01610144
KRST 250554Z AUTO 31005KT 10SM -RA FEW040 16/14 A2986 RMK AO2 SLP107 P0000 60000 T01560144 10211 20156 402560094 51007
KRST 250454Z AUTO 27006KT 10SM -RA FEW039 18/14 A2986 RMK AO2 RAB18 SLP105 P0000 T01780144
KRST 250354Z 20007KT 10SM BKN045 OVC070 18/14 A2985 RMK AO2 SLP104 T01830144
KRST 250254Z 17007KT 10SM SCT065 18/14 A2984 RMK AO2 SLP101 T01830144 53004
KRST 250154Z 17007KT 10SM SCT048 18/14 A2983 RMK AO2 SLP100 T01830144
KRST 250054Z 16006KT 10SM CLR 19/14 A2982 RMK AO2 SLP098 T01940139
KRST 242354Z 17008KT 10SM SCT050 21/14 A2983 RMK AO2 SLP099 T02110139 10256 20211 58005
KRST 242254Z 18008G19KT 10SM BKN050 23/14 A2984 RMK AO2 SLP102 T02330139
KRST 242154Z 19013G22KT 10SM SCT048 24/14 A2984 RMK AO2 SLP101 T02440139
KRST 242054Z 19014G25KT 10SM CLR 25/14 A2984 RMK AO2 SLP102 T02500139 56023
KRST 241954Z 16012G23KT 10SM FEW043 25/14 A2985 RMK AO2 PK WND 18027/1922 SLP104 T02500144
KRST 241854Z 18015G22KT 10SM FEW040 25/14 A2988 RMK AO2 SLP115 T02500144
KRST 241754Z 19016G24KT 10SM SCT038 24/14 A2991 RMK AO2 PK WND 16026/1724 SLP126 T02440144 10244 20094 58020
KRST 241654Z 17011G23KT 10SM CLR 23/14 A2994 RMK AO2 SLP135 T02330139